Meloi — 3FOD — position and weather

sailwx.info

Track history (hours):
 
Tides and Currents Weather Stations Pressure Air Temp Water Temp Dewpoint Dewpoint Depression Visibility Wind Speed Wind Dir Waves Ship Positions

Meloi

Last reported at 2014-Jul-16 12:25 UTC. Time now 2014-Jul-30 15:16 UTC.
Position N 36°50' E 001°23'.
Warning: this ship's position is 14 days out of date.

Length 180 m; draft 9.7 m.

Type: Cargo ship. MMSI: 351132000.

Date/timePositionNaut miles runAvg speedWind from/ knotsBaromVisibWave heightAir tempDewpointWater temp
2014-Jul-16 12:25N 36°50' E 001°23'1113.3
2014-Jul-16 11:33N 36°53' E 001°37'1413.1
2014-Jul-16 10:32N 36°54' E 001°53'1212.3
2014-Jul-16 09:33N 36°56' E 002°08'1211.7
2014-Jul-16 08:33N 36°57' E 002°23'1211.7
2014-Jul-16 07:33N 36°59' E 002°37'1212.0
2014-Jul-16 06:33N 37°02' E 002°52'1312.6
2014-Jul-16 05:33N 37°04' E 003°08'1211.8
2014-Jul-16 04:33N 37°05' E 003°22'1712.5
2014-Jul-16 03:10N 37°07' E 003°44'2112.5
2014-Jul-16 01:31N 37°11' E 004°09'1313.0
2014-Jul-16 00:32N 37°12' E 004°25'  
Track history (hours):
 
Tides and Currents Weather Stations Pressure Air Temp Water Temp Dewpoint Dewpoint Depression Visibility Wind Speed Wind Dir Waves Ship Positions

Meloi

Last reported at 2014-Jul-16 12:25 UTC. Time now 2014-Jul-30 15:16 UTC.
Position N 36°50' E 001°23'.
Warning: this ship's position is 14 days out of date.

Length 180 m; draft 9.7 m.

Type: Cargo ship. MMSI: 351132000.

Date/timePositionNaut miles runAvg speedWind from/ knotsBaromVisibWave heightAir tempDewpointWater temp
2014-Jul-16 12:25N 36°50' E 001°23'1113.3
2014-Jul-16 11:33N 36°53' E 001°37'1413.1
2014-Jul-16 10:32N 36°54' E 001°53'1212.3
2014-Jul-16 09:33N 36°56' E 002°08'1211.7
2014-Jul-16 08:33N 36°57' E 002°23'1211.7
2014-Jul-16 07:33N 36°59' E 002°37'1212.0
2014-Jul-16 06:33N 37°02' E 002°52'1312.6
2014-Jul-16 05:33N 37°04' E 003°08'1211.8
2014-Jul-16 04:33N 37°05' E 003°22'1712.5
2014-Jul-16 03:10N 37°07' E 003°44'2112.5
2014-Jul-16 01:31N 37°11' E 004°09'1313.0
2014-Jul-16 00:32N 37°12' E 004°25'  

Dump ship's entire track history